createdAt,value
2019-02-27T00:00:43.949Z,87.29
2019-02-27T00:01:42.220Z,86.68
2019-02-27T00:02:42.184Z,87.29
2019-02-27T00:03:42.146Z,87.29
2019-02-27T00:04:42.128Z,87.19
2019-02-27T00:05:42.411Z,87.19
2019-02-27T00:06:42.109Z,87.29
2019-02-27T00:07:42.109Z,87.29
2019-02-27T00:08:42.081Z,87.40
2019-02-27T00:09:42.072Z,87.60
2019-02-27T00:10:42.065Z,87.60
2019-02-27T00:11:45.855Z,87.71
2019-02-27T00:12:42.049Z,88.32
2019-02-27T00:13:42.033Z,89.36
2019-02-27T00:14:42.055Z,89.46
2019-02-27T00:15:42.007Z,89.67
2019-02-27T00:16:44.627Z,89.87
2019-02-27T00:17:41.983Z,89.77
2019-02-27T00:18:41.977Z,89.77
2019-02-27T00:19:41.967Z,90.19
2019-02-27T00:20:41.965Z,90.39
2019-02-27T00:21:43.640Z,90.19
2019-02-27T00:22:41.993Z,89.98
2019-02-27T00:23:41.920Z,90.19
2019-02-27T00:24:41.932Z,89.67
2019-02-27T00:25:41.902Z,89.77
2019-02-27T00:26:42.471Z,89.87
2019-02-27T00:27:41.880Z,89.36
2019-02-27T00:28:41.908Z,89.56
2019-02-27T00:29:41.852Z,89.46
2019-02-27T00:30:41.843Z,89.36
2019-02-27T00:31:45.315Z,89.25
2019-02-27T00:32:41.820Z,89.56
2019-02-27T00:33:41.819Z,89.56
2019-02-27T00:34:41.818Z,89.87
2019-02-27T00:35:41.794Z,89.46
2019-02-27T00:36:44.796Z,89.25
2019-02-27T00:37:41.772Z,89.36
2019-02-27T00:38:41.788Z,89.46
2019-02-27T00:39:41.751Z,88.95
2019-02-27T00:40:41.739Z,88.95
2019-02-27T00:41:43.067Z,89.46
2019-02-27T00:42:41.723Z,89.36
2019-02-27T00:43:41.732Z,89.46
2019-02-27T00:44:41.689Z,89.36
2019-02-27T00:45:41.685Z,89.36
2019-02-27T00:46:43.985Z,89.05
2019-02-27T00:47:41.655Z,89.05
2019-02-27T00:48:41.687Z,89.09
2019-02-27T00:49:41.637Z,89.61
2019-02-27T00:50:41.625Z,89.19
2019-02-27T00:51:44.660Z,89.50
2019-02-27T00:52:41.606Z,89.40
2019-02-27T00:53:41.597Z,89.29
2019-02-27T00:54:41.626Z,89.36
2019-02-27T00:55:41.601Z,89.40
2019-02-27T00:56:44.815Z,89.50
2019-02-27T00:57:41.552Z,89.61
2019-02-27T00:58:41.541Z,89.81
2019-02-27T00:59:41.558Z,89.61
2019-02-27T01:00:41.529Z,89.81
2019-02-27T01:01:41.512Z,89.81
2019-02-27T01:02:41.495Z,89.81
2019-02-27T01:03:41.486Z,89.81
2019-02-27T01:04:41.558Z,89.71
2019-02-27T01:05:41.728Z,89.61
2019-02-27T01:06:41.453Z,89.61
2019-02-27T01:07:41.443Z,89.50
2019-02-27T01:08:41.427Z,89.50
2019-02-27T01:09:41.420Z,89.50
2019-02-27T01:10:45.041Z,89.61
2019-02-27T01:11:41.398Z,89.50
2019-02-27T01:12:41.383Z,89.61
2019-02-27T01:13:41.373Z,89.71
2019-02-27T01:14:41.362Z,89.29
2019-02-27T01:15:41.775Z,89.40
2019-02-27T01:16:41.344Z,89.40
2019-02-27T01:17:41.327Z,89.19
2019-02-27T01:18:41.316Z,89.50
2019-02-27T01:19:42.902Z,89.75
2019-02-27T01:20:45.664Z,90.22
2019-02-27T01:21:42.283Z,89.81
2019-02-27T01:22:41.275Z,89.50
2019-02-27T01:23:43.881Z,89.40
2019-02-27T01:24:41.255Z,89.54
2019-02-27T01:25:41.239Z,89.65
2019-02-27T01:26:41.245Z,89.54
2019-02-27T01:27:41.227Z,89.54
2019-02-27T01:28:44.674Z,89.13
2019-02-27T01:29:41.211Z,89.44
2019-02-27T01:30:41.196Z,89.65
2019-02-27T01:31:41.219Z,89.95
2019-02-27T01:32:41.188Z,90.26
2019-02-27T01:33:41.156Z,89.95
2019-02-27T01:34:44.181Z,89.75
2019-02-27T01:35:41.128Z,89.44
2019-02-27T01:36:41.142Z,89.34
2019-02-27T01:37:41.140Z,89.54
2019-02-27T01:38:41.102Z,89.03
2019-02-27T01:39:41.848Z,89.03
2019-02-27T01:40:41.089Z,89.03
2019-02-27T01:41:41.067Z,89.13
2019-02-27T01:42:41.076Z,89.07
2019-02-27T01:43:41.058Z,89.44
2019-02-27T01:44:41.088Z,89.48
2019-02-27T01:45:41.025Z,89.38
2019-02-27T01:46:41.020Z,89.75
2019-02-27T01:47:41.003Z,90.10
2019-02-27T01:48:43.699Z,90.00
2019-02-27T01:49:40.991Z,90.47
2019-02-27T01:50:40.967Z,90.26
2019-02-27T01:51:40.951Z,90.06
2019-02-27T01:52:40.944Z,90.06
2019-02-27T01:53:41.264Z,90.37
2019-02-27T01:54:40.924Z,90.52
2019-02-27T01:55:40.915Z,90.89
2019-02-27T01:56:40.903Z,91.13
2019-02-27T01:57:40.892Z,90.52
2019-02-27T01:58:43.421Z,90.31
2019-02-27T01:59:40.908Z,90.20
2019-02-27T02:00:40.858Z,90.00
2019-02-27T02:01:40.846Z,89.69
2019-02-27T02:02:40.841Z,89.59
2019-02-27T02:03:40.850Z,90.31
2019-02-27T02:04:40.814Z,91.44
2019-02-27T02:05:40.805Z,90.68
2019-02-27T02:06:40.792Z,90.52
2019-02-27T02:07:40.828Z,90.41
2019-02-27T02:08:40.811Z,90.10
2019-02-27T02:09:40.753Z,90.10
2019-02-27T02:10:40.743Z,89.38
2019-02-27T02:11:41.268Z,89.38
2019-02-27T02:12:41.614Z,89.38
2019-02-27T02:13:40.717Z,89.59
2019-02-27T02:14:40.704Z,89.42
2019-02-27T02:15:40.691Z,89.73
2019-02-27T02:16:40.701Z,89.79
2019-02-27T02:17:41.057Z,91.07
2019-02-27T02:18:40.653Z,91.96
2019-02-27T02:19:40.648Z,91.86
2019-02-27T02:20:40.635Z,91.69
2019-02-27T02:21:40.655Z,90.93
2019-02-27T02:22:41.276Z,90.31
2019-02-27T02:23:40.598Z,90.20
2019-02-27T02:24:40.591Z,90.04
2019-02-27T02:25:40.581Z,90.25
2019-02-27T02:26:40.565Z,90.14
2019-02-27T02:27:41.448Z,90.45
2019-02-27T02:28:40.543Z,90.45
2019-02-27T02:29:40.536Z,90.25
2019-02-27T02:30:40.519Z,90.25
2019-02-27T02:31:41.701Z,90.25
2019-02-27T02:32:40.537Z,90.56
2019-02-27T02:33:40.500Z,89.94
2019-02-27T02:34:41.036Z,89.67
2019-02-27T02:35:40.473Z,89.77
2019-02-27T02:36:40.459Z,89.67
2019-02-27T02:37:40.467Z,89.77
2019-02-27T02:38:40.436Z,89.98
2019-02-27T02:39:40.421Z,90.29
2019-02-27T02:40:40.414Z,89.98
2019-02-27T02:41:46.798Z,90.39
2019-02-27T02:42:41.385Z,90.50
2019-02-27T02:43:41.886Z,91.11
2019-02-27T02:44:40.375Z,90.70
2019-02-27T02:45:40.362Z,90.60
2019-02-27T02:46:44.826Z,91.22
2019-02-27T02:47:40.333Z,91.42
2019-02-27T02:48:40.346Z,91.74
2019-02-27T02:49:42.617Z,91.53
2019-02-27T02:50:40.307Z,91.32
2019-02-27T02:51:40.302Z,91.53
2019-02-27T02:52:41.575Z,91.32
2019-02-27T02:53:40.309Z,90.84
2019-02-27T02:54:40.349Z,91.57
2019-02-27T02:55:40.253Z,91.05
2019-02-27T02:56:40.247Z,91.99
2019-02-27T02:57:40.234Z,91.88
2019-02-27T02:58:40.218Z,92.40
2019-02-27T02:59:40.205Z,92.50
2019-02-27T03:00:40.227Z,92.19
2019-02-27T03:01:40.186Z,92.50
2019-02-27T03:02:40.175Z,92.50
2019-02-27T03:03:40.162Z,92.50
2019-02-27T03:04:40.155Z,92.40
2019-02-27T03:05:40.171Z,92.30
2019-02-27T03:06:40.126Z,92.65
2019-02-27T03:07:44.451Z,92.19
2019-02-27T03:08:41.121Z,92.24
2019-02-27T03:09:40.105Z,92.24
2019-02-27T03:10:42.790Z,92.13
2019-02-27T03:11:40.074Z,92.34
2019-02-27T03:12:40.096Z,92.24
2019-02-27T03:13:41.885Z,92.24
2019-02-27T03:14:40.048Z,92.24
2019-02-27T03:15:40.061Z,92.24
2019-02-27T03:16:41.398Z,92.34
2019-02-27T03:17:40.009Z,92.44
2019-02-27T03:18:39.997Z,92.34
2019-02-27T03:19:41.810Z,92.28
2019-02-27T03:20:40.012Z,92.44
2019-02-27T03:21:39.996Z,92.13
2019-02-27T03:22:41.639Z,92.03
2019-02-27T03:23:39.949Z,91.82
2019-02-27T03:24:39.935Z,92.38
2019-02-27T03:25:40.702Z,92.28
2019-02-27T03:26:39.918Z,92.49
2019-02-27T03:27:39.901Z,92.38
2019-02-27T03:28:41.106Z,92.49
2019-02-27T03:29:39.885Z,92.49
2019-02-27T03:30:39.878Z,92.28
2019-02-27T03:31:39.884Z,92.49
2019-02-27T03:32:43.184Z,92.24
2019-02-27T03:33:39.836Z,92.34
2019-02-27T03:34:48.032Z,93.00
2019-02-27T03:35:40.819Z,92.90
2019-02-27T03:36:39.814Z,92.76
2019-02-27T03:37:39.839Z,92.69
2019-02-27T03:38:39.828Z,92.69
2019-02-27T03:39:39.782Z,92.69
2019-02-27T03:40:39.759Z,92.90
2019-02-27T03:41:39.755Z,92.80
2019-02-27T03:42:39.770Z,93.00
2019-02-27T03:43:45.691Z,93.00
2019-02-27T03:44:40.749Z,93.10
2019-02-27T03:45:39.716Z,92.90
2019-02-27T03:46:41.793Z,92.63
2019-02-27T03:47:39.688Z,93.10
2019-02-27T03:48:39.672Z,93.31
2019-02-27T03:49:40.790Z,93.46
2019-02-27T03:50:39.659Z,93.41
2019-02-27T03:51:39.640Z,92.90
2019-02-27T03:52:39.636Z,93.21
2019-02-27T03:53:43.241Z,92.90
2019-02-27T03:54:40.640Z,92.94
2019-02-27T03:55:39.600Z,93.31
2019-02-27T03:56:43.528Z,93.00
2019-02-27T03:57:40.580Z,93.10
2019-02-27T03:58:39.570Z,92.80
2019-02-27T03:59:42.728Z,92.80
2019-02-27T04:00:42.018Z,93.00
2019-02-27T04:01:39.532Z,93.00
2019-02-27T04:02:42.035Z,93.31
2019-02-27T04:03:39.516Z,93.21
2019-02-27T04:04:39.515Z,93.31
2019-02-27T04:05:41.929Z,92.90
2019-02-27T04:06:40.484Z,93.04
2019-02-27T04:07:39.465Z,93.10
2019-02-27T04:08:43.549Z,93.00
2019-02-27T04:09:40.454Z,93.00
2019-02-27T04:10:39.462Z,93.41
2019-02-27T04:11:42.636Z,93.21
2019-02-27T04:12:39.431Z,93.00
2019-02-27T04:13:39.405Z,92.90
2019-02-27T04:14:41.802Z,93.41
2019-02-27T04:15:39.399Z,93.52
2019-02-27T04:16:39.381Z,93.04
2019-02-27T04:17:39.360Z,93.56
2019-02-27T04:18:39.348Z,93.41
2019-02-27T04:19:40.442Z,93.52
2019-02-27T04:20:39.326Z,92.94
2019-02-27T04:21:39.338Z,93.25
2019-02-27T04:22:39.302Z,93.25
2019-02-27T04:23:39.294Z,93.25
2019-02-27T04:24:39.285Z,92.94
2019-02-27T04:25:39.276Z,92.84
2019-02-27T04:26:41.996Z,93.21
2019-02-27T04:27:39.267Z,93.52
2019-02-27T04:28:39.243Z,93.35
2019-02-27T04:29:41.079Z,93.31
2019-02-27T04:30:39.226Z,93.52
2019-02-27T04:31:39.212Z,93.52
2019-02-27T04:32:39.228Z,93.35
2019-02-27T04:33:39.190Z,92.90
2019-02-27T04:34:39.174Z,93.00
2019-02-27T04:35:39.652Z,93.25
2019-02-27T04:36:39.185Z,93.04
2019-02-27T04:37:39.149Z,93.15
2019-02-27T04:38:39.134Z,93.00
2019-02-27T04:39:39.128Z,93.10
2019-02-27T04:40:39.107Z,93.62
2019-02-27T04:41:39.145Z,93.41
2019-02-27T04:42:39.087Z,93.21
2019-02-27T04:43:39.080Z,93.10
2019-02-27T04:44:39.621Z,93.00
2019-02-27T04:45:39.053Z,93.10
2019-02-27T04:46:39.088Z,93.52
2019-02-27T04:47:39.037Z,93.31
2019-02-27T04:48:39.026Z,93.41
2019-02-27T04:49:39.017Z,93.21
2019-02-27T04:50:39.004Z,93.31
2019-02-27T04:51:39.023Z,93.00
2019-02-27T04:52:38.977Z,92.90
2019-02-27T04:53:40.721Z,92.80
2019-02-27T04:54:41.441Z,93.00
2019-02-27T04:55:38.951Z,92.90
2019-02-27T04:56:38.940Z,92.90
2019-02-27T04:57:38.957Z,92.94
2019-02-27T04:58:42.809Z,92.69
2019-02-27T04:59:38.909Z,92.63
2019-02-27T05:00:38.898Z,92.69
2019-02-27T05:01:38.886Z,92.53
2019-02-27T05:02:38.869Z,92.69
2019-02-27T05:03:38.890Z,93.10
2019-02-27T05:04:38.858Z,92.80
2019-02-27T05:05:39.111Z,92.80
2019-02-27T05:06:38.826Z,92.90
2019-02-27T05:07:38.823Z,92.90
2019-02-27T05:08:38.810Z,92.80
2019-02-27T05:09:38.807Z,92.90
2019-02-27T05:10:40.608Z,92.69
2019-02-27T05:11:38.804Z,92.53
2019-02-27T05:12:38.768Z,92.59
2019-02-27T05:13:38.756Z,92.69
2019-02-27T05:14:38.739Z,92.59
2019-02-27T05:15:39.637Z,92.28
2019-02-27T05:16:38.763Z,92.38
2019-02-27T05:17:38.712Z,92.49
2019-02-27T05:18:38.703Z,92.22
2019-02-27T05:19:38.690Z,92.38
2019-02-27T05:20:38.680Z,91.66
2019-02-27T05:21:38.754Z,91.55
2019-02-27T05:22:38.657Z,90.72
2019-02-27T05:23:38.647Z,91.45
2019-02-27T05:24:40.832Z,90.47
2019-02-27T05:25:38.648Z,90.41
2019-02-27T05:26:38.616Z,90.20
2019-02-27T05:27:38.688Z,90.31
2019-02-27T05:28:38.589Z,89.69
2019-02-27T05:29:38.582Z,89.79
2019-02-27T05:30:38.574Z,89.79
2019-02-27T05:31:38.565Z,89.79
2019-02-27T05:32:38.576Z,89.79
2019-02-27T05:33:39.913Z,89.48
2019-02-27T05:34:38.530Z,89.58
2019-02-27T05:35:38.548Z,89.79
2019-02-27T05:36:38.505Z,89.79
2019-02-27T05:37:39.327Z,89.28
2019-02-27T05:38:40.986Z,89.48
2019-02-27T05:39:39.473Z,89.17
2019-02-27T05:40:38.598Z,89.48
2019-02-27T05:41:38.476Z,89.28
2019-02-27T05:42:38.972Z,89.38
2019-02-27T05:43:38.428Z,89.38
2019-02-27T05:44:38.425Z,89.07
2019-02-27T05:45:38.406Z,88.86
2019-02-27T05:46:39.069Z,88.76
2019-02-27T05:47:38.392Z,88.55
2019-02-27T05:48:38.398Z,88.76
2019-02-27T05:49:38.371Z,88.55
2019-02-27T05:50:38.352Z,88.76
2019-02-27T05:51:38.347Z,88.79
2019-02-27T05:52:38.395Z,88.69
2019-02-27T05:53:38.338Z,88.18
2019-02-27T05:54:38.312Z,88.28
2019-02-27T05:55:39.195Z,88.39
2019-02-27T05:56:38.288Z,88.28
2019-02-27T05:57:39.159Z,88.28
2019-02-27T05:58:38.290Z,88.28
2019-02-27T05:59:38.267Z,88.28
2019-02-27T06:00:38.245Z,87.97
2019-02-27T06:01:38.765Z,87.35
2019-02-27T06:02:38.221Z,87.66
2019-02-27T06:03:38.261Z,87.87
2019-02-27T06:04:38.202Z,86.72
2019-02-27T06:05:38.191Z,86.52
2019-02-27T06:06:38.180Z,86.52
2019-02-27T06:07:38.174Z,86.72
2019-02-27T06:08:38.228Z,86.00
2019-02-27T06:09:38.153Z,86.21
2019-02-27T06:10:38.163Z,86.52
2019-02-27T06:11:38.126Z,86.41
2019-02-27T06:12:40.761Z,86.41
2019-02-27T06:13:38.106Z,86.21
2019-02-27T06:14:38.089Z,86.25
2019-02-27T06:15:38.141Z,85.94
2019-02-27T06:16:40.692Z,85.89
2019-02-27T06:17:43.281Z,85.42
2019-02-27T06:18:39.045Z,84.69
2019-02-27T06:19:38.042Z,84.48
2019-02-27T06:20:38.980Z,84.07
2019-02-27T06:21:38.887Z,84.38
2019-02-27T06:22:38.008Z,83.97
2019-02-27T06:23:38.493Z,84.38
2019-02-27T06:24:37.997Z,84.28
2019-02-27T06:25:37.977Z,84.28
2019-02-27T06:26:37.992Z,84.17
2019-02-27T06:27:39.431Z,84.17
2019-02-27T06:28:37.938Z,84.28
2019-02-27T06:29:37.943Z,83.97
2019-02-27T06:30:37.927Z,83.86
2019-02-27T06:31:39.504Z,83.86
2019-02-27T06:32:37.896Z,83.69
2019-02-27T06:33:37.890Z,83.90
2019-02-27T06:34:37.878Z,84.17
2019-02-27T06:35:37.871Z,83.97
2019-02-27T06:36:41.829Z,83.97
2019-02-27T06:37:37.845Z,84.31
2019-02-27T06:38:37.829Z,83.65
2019-02-27T06:39:37.824Z,83.86
2019-02-27T06:40:42.105Z,84.07
2019-02-27T06:41:39.948Z,83.65
2019-02-27T06:42:37.790Z,83.65
2019-02-27T06:43:37.786Z,83.24
2019-02-27T06:44:39.265Z,83.14
2019-02-27T06:45:37.754Z,83.24
2019-02-27T06:46:37.748Z,83.03
2019-02-27T06:47:38.680Z,83.14
2019-02-27T06:48:37.721Z,82.41
2019-02-27T06:49:37.719Z,82.72
2019-02-27T06:50:37.700Z,82.62
2019-02-27T06:51:37.721Z,82.41
2019-02-27T06:52:40.160Z,82.10
2019-02-27T06:53:37.673Z,82.31
2019-02-27T06:54:37.862Z,82.31
2019-02-27T06:55:37.656Z,82.10
2019-02-27T06:56:37.640Z,82.20
2019-02-27T06:57:40.914Z,81.99
2019-02-27T06:58:37.647Z,81.79
2019-02-27T06:59:37.608Z,81.79
2019-02-27T07:00:37.598Z,81.79
2019-02-27T07:01:37.582Z,81.75
2019-02-27T07:02:37.577Z,81.68
2019-02-27T07:03:37.612Z,81.75
2019-02-27T07:04:39.501Z,81.13
2019-02-27T07:05:37.545Z,81.02
2019-02-27T07:06:37.533Z,81.23
2019-02-27T07:07:37.518Z,80.71
2019-02-27T07:08:38.155Z,81.65
2019-02-27T07:09:37.530Z,81.13
2019-02-27T07:10:37.491Z,80.51
2019-02-27T07:11:37.478Z,80.19
2019-02-27T07:12:37.463Z,80.09
2019-02-27T07:13:37.458Z,79.88
2019-02-27T07:14:39.111Z,79.78
2019-02-27T07:15:37.445Z,80.09
2019-02-27T07:16:37.431Z,79.74
2019-02-27T07:17:37.407Z,79.68
2019-02-27T07:18:41.546Z,79.16
2019-02-27T07:19:37.386Z,79.02
2019-02-27T07:20:37.390Z,79.02
2019-02-27T07:21:37.392Z,78.23
2019-02-27T07:22:37.362Z,78.40
2019-02-27T07:23:37.344Z,78.50
2019-02-27T07:24:37.337Z,78.40
2019-02-27T07:25:41.957Z,78.50
2019-02-27T07:26:38.308Z,78.40
2019-02-27T07:27:37.304Z,78.19
2019-02-27T07:28:37.292Z,77.53
2019-02-27T07:29:37.283Z,77.74
2019-02-27T07:30:39.798Z,77.74
2019-02-27T07:31:38.297Z,77.74
2019-02-27T07:32:37.246Z,78.05
2019-02-27T07:33:37.994Z,77.60
2019-02-27T07:34:37.225Z,77.60
2019-02-27T07:35:37.215Z,76.88
2019-02-27T07:36:38.571Z,77.09
2019-02-27T07:37:37.206Z,76.46
2019-02-27T07:38:37.182Z,75.53
2019-02-27T07:39:37.171Z,75.32
2019-02-27T07:40:37.164Z,75.70
2019-02-27T07:41:37.161Z,75.70
2019-02-27T07:42:37.143Z,75.53
2019-02-27T07:43:37.156Z,75.70
2019-02-27T07:44:37.118Z,75.81
2019-02-27T07:45:37.121Z,75.29
2019-02-27T07:46:37.099Z,74.95
2019-02-27T07:47:37.083Z,75.09
2019-02-27T07:48:37.075Z,74.98
2019-02-27T07:49:37.068Z,74.95
2019-02-27T07:50:37.062Z,75.15
2019-02-27T07:51:37.046Z,74.22
2019-02-27T07:52:37.038Z,73.91
2019-02-27T07:53:37.030Z,73.29
2019-02-27T07:54:37.010Z,73.08
2019-02-27T07:55:37.001Z,72.98
2019-02-27T07:56:36.992Z,73.16
2019-02-27T07:57:36.976Z,73.05
2019-02-27T07:58:36.972Z,72.64
2019-02-27T07:59:38.123Z,72.64
2019-02-27T08:00:36.946Z,72.53
2019-02-27T08:01:43.436Z,71.92
2019-02-27T08:02:37.925Z,71.19
2019-02-27T08:03:36.905Z,71.47
2019-02-27T08:04:36.899Z,70.85
2019-02-27T08:05:36.883Z,69.71
2019-02-27T08:06:37.733Z,69.09
2019-02-27T08:07:36.906Z,69.71
2019-02-27T08:08:36.885Z,70.23
2019-02-27T08:09:36.844Z,69.68
2019-02-27T08:10:37.493Z,69.68
2019-02-27T08:11:36.851Z,68.54
2019-02-27T08:12:36.812Z,67.72
2019-02-27T08:13:36.801Z,67.93
2019-02-27T08:14:37.762Z,68.24
2019-02-27T08:15:36.773Z,67.90
2019-02-27T08:16:37.062Z,67.90
2019-02-27T08:17:36.752Z,66.76
2019-02-27T08:18:38.174Z,66.24
2019-02-27T08:19:36.897Z,66.45
2019-02-27T08:20:36.734Z,66.97
2019-02-27T08:21:36.718Z,65.91
2019-02-27T08:22:36.706Z,66.35
2019-02-27T08:23:36.691Z,65.59
2019-02-27T08:24:36.710Z,65.80
2019-02-27T08:25:36.702Z,64.87
2019-02-27T08:26:37.056Z,65.05
2019-02-27T08:27:36.647Z,65.25
2019-02-27T08:28:36.640Z,65.46
2019-02-27T08:29:36.628Z,65.46
2019-02-27T08:30:36.618Z,65.95
2019-02-27T08:31:36.608Z,65.64
2019-02-27T08:32:36.590Z,65.33
2019-02-27T08:33:36.582Z,65.50
2019-02-27T08:34:36.570Z,65.19
2019-02-27T08:35:36.593Z,64.89
2019-02-27T08:36:36.598Z,64.54
2019-02-27T08:37:36.538Z,62.25
2019-02-27T08:38:36.530Z,62.12
2019-02-27T08:39:36.514Z,61.27
2019-02-27T08:40:36.500Z,60.11
2019-02-27T08:41:36.489Z,60.80
2019-02-27T08:42:39.640Z,61.93
2019-02-27T08:43:36.473Z,60.33
2019-02-27T08:44:36.463Z,59.92
2019-02-27T08:45:36.450Z,58.95
2019-02-27T08:46:36.998Z,57.89
2019-02-27T08:47:36.440Z,57.18
2019-02-27T08:48:36.420Z,57.05
2019-02-27T08:49:36.413Z,56.95
2019-02-27T08:50:36.399Z,55.79
2019-02-27T08:51:36.387Z,56.18
2019-02-27T08:52:36.416Z,53.69
2019-02-27T08:53:36.360Z,53.90
2019-02-27T08:54:36.348Z,54.10
2019-02-27T08:55:39.038Z,53.88
2019-02-27T08:56:36.330Z,52.95
2019-02-27T08:57:36.321Z,53.13
2019-02-27T08:58:36.319Z,53.13
2019-02-27T08:59:36.993Z,51.89
2019-02-27T09:00:36.287Z,51.37
2019-02-27T09:01:37.761Z,50.25
2019-02-27T09:02:36.259Z,49.59
2019-02-27T09:03:37.004Z,50.10
2019-02-27T09:04:36.243Z,50.20
2019-02-27T09:05:36.235Z,49.38
2019-02-27T09:06:36.215Z,48.85
2019-02-27T09:07:36.451Z,48.03
2019-02-27T09:08:36.206Z,47.20
2019-02-27T09:09:36.325Z,47.22
2019-02-27T09:10:36.188Z,47.50
2019-02-27T09:11:39.658Z,46.87
2019-02-27T09:12:36.156Z,47.08
2019-02-27T09:13:36.138Z,46.56
2019-02-27T09:14:36.138Z,46.34
2019-02-27T09:15:36.158Z,46.14
2019-02-27T09:16:36.111Z,45.81
2019-02-27T09:17:36.105Z,46.32
2019-02-27T09:18:36.750Z,45.07
2019-02-27T09:19:36.080Z,45.99
2019-02-27T09:20:36.064Z,44.46
2019-02-27T09:21:36.097Z,44.87
2019-02-27T09:22:36.785Z,44.34
2019-02-27T09:23:36.029Z,43.81
2019-02-27T09:24:36.024Z,44.42
2019-02-27T09:25:36.009Z,44.12
2019-02-27T09:26:36.786Z,43.69
2019-02-27T09:27:36.032Z,43.38
2019-02-27T09:28:35.973Z,43.38
2019-02-27T09:29:35.968Z,43.16
2019-02-27T09:30:35.956Z,41.84
2019-02-27T09:31:37.691Z,41.62
2019-02-27T09:32:35.942Z,42.43
2019-02-27T09:33:38.839Z,41.11
2019-02-27T09:34:35.909Z,40.61
2019-02-27T09:35:38.608Z,41.09
2019-02-27T09:36:35.895Z,40.89
2019-02-27T09:37:35.914Z,39.78
2019-02-27T09:38:35.870Z,39.67
2019-02-27T09:39:35.854Z,38.76
2019-02-27T09:40:38.636Z,37.02
2019-02-27T09:41:35.838Z,37.62
2019-02-27T09:42:35.860Z,37.62
2019-02-27T09:43:35.932Z,36.91
2019-02-27T09:44:36.598Z,36.80
2019-02-27T09:45:35.801Z,36.21
2019-02-27T09:46:35.836Z,35.78
2019-02-27T09:47:35.767Z,35.28
2019-02-27T09:48:35.767Z,35.36
2019-02-27T09:49:37.996Z,35.06
2019-02-27T09:50:35.733Z,34.64
2019-02-27T09:51:35.730Z,34.23
2019-02-27T09:52:35.717Z,35.04
2019-02-27T09:53:36.813Z,33.92
2019-02-27T09:54:35.693Z,33.22
2019-02-27T09:55:35.679Z,33.12
2019-02-27T09:56:35.679Z,32.81
2019-02-27T09:57:36.722Z,33.22
2019-02-27T09:58:36.070Z,32.79
2019-02-27T09:59:35.634Z,32.50
2019-02-27T10:00:35.623Z,31.99
2019-02-27T10:01:35.618Z,32.39
2019-02-27T10:02:35.602Z,32.90
2019-02-27T10:03:35.596Z,32.29
2019-02-27T10:04:35.617Z,33.20
2019-02-27T10:05:36.681Z,32.50
2019-02-27T10:06:35.563Z,31.67
2019-02-27T10:07:35.547Z,31.55
2019-02-27T10:08:35.541Z,30.83
2019-02-27T10:09:35.524Z,31.23
2019-02-27T10:10:35.525Z,30.52
2019-02-27T10:11:35.518Z,30.83
2019-02-27T10:12:35.491Z,30.71
2019-02-27T10:13:37.948Z,31.03
2019-02-27T10:14:35.474Z,30.62
2019-02-27T10:15:35.479Z,30.09
2019-02-27T10:16:35.453Z,30.30
2019-02-27T10:17:35.437Z,29.49
2019-02-27T10:18:35.440Z,29.39
2019-02-27T10:19:35.415Z,29.59
2019-02-27T10:20:37.304Z,29.69
2019-02-27T10:21:35.409Z,29.39
2019-02-27T10:22:35.390Z,29.39
2019-02-27T10:23:35.372Z,29.69
2019-02-27T10:24:36.914Z,28.85
2019-02-27T10:25:35.364Z,28.55
2019-02-27T10:26:35.339Z,28.45
2019-02-27T10:27:35.331Z,29.14
2019-02-27T10:28:38.885Z,27.62
2019-02-27T10:29:35.313Z,26.60
2019-02-27T10:30:35.306Z,27.40
2019-02-27T10:31:35.295Z,26.80
2019-02-27T10:32:36.707Z,26.99
2019-02-27T10:33:35.275Z,27.39
2019-02-27T10:34:36.279Z,25.65
2019-02-27T10:35:35.251Z,25.95
2019-02-27T10:36:38.241Z,25.56
2019-02-27T10:37:35.326Z,25.14
2019-02-27T10:38:40.276Z,25.23
2019-02-27T10:39:37.159Z,25.13
2019-02-27T10:40:35.195Z,23.91
2019-02-27T10:41:35.183Z,24.30
2019-02-27T10:42:35.171Z,23.60
2019-02-27T10:43:35.179Z,23.18
2019-02-27T10:44:35.170Z,23.18
2019-02-27T10:45:35.173Z,22.86
2019-02-27T10:46:35.134Z,22.76
2019-02-27T10:47:36.518Z,22.55
2019-02-27T10:48:36.784Z,22.24
2019-02-27T10:49:35.131Z,23.04
2019-02-27T10:50:36.110Z,22.24
2019-02-27T10:51:35.067Z,21.83
2019-02-27T10:52:35.056Z,22.12
2019-02-27T10:53:35.046Z,22.52
2019-02-27T10:54:37.084Z,21.94
2019-02-27T10:55:35.044Z,22.84
2019-02-27T10:56:35.078Z,21.83
2019-02-27T10:57:38.382Z,21.83
2019-02-27T10:58:35.000Z,22.62
2019-02-27T10:59:34.981Z,21.20
2019-02-27T11:00:34.991Z,21.01
2019-02-27T11:01:36.344Z,21.11
2019-02-27T11:02:34.956Z,20.40
2019-02-27T11:03:34.948Z,21.09
2019-02-27T11:04:36.311Z,21.20
2019-02-27T11:05:34.931Z,21.09
2019-02-27T11:06:37.750Z,21.00
2019-02-27T11:07:34.899Z,21.70
2019-02-27T11:08:34.891Z,20.90
2019-02-27T11:09:34.878Z,21.81
2019-02-27T11:10:34.944Z,22.03
2019-02-27T11:11:34.859Z,21.73
2019-02-27T11:12:34.840Z,21.94
2019-02-27T11:13:34.835Z,22.84
2019-02-27T11:14:34.822Z,21.84
2019-02-27T11:15:34.815Z,21.73
2019-02-27T11:16:34.809Z,22.03
2019-02-27T11:17:34.791Z,21.73
2019-02-27T11:18:34.777Z,22.74
2019-02-27T11:19:35.034Z,21.84
2019-02-27T11:20:34.792Z,20.64
2019-02-27T11:21:34.757Z,21.23
2019-02-27T11:22:34.735Z,21.03
2019-02-27T11:23:34.742Z,21.23
2019-02-27T11:24:34.760Z,21.75
2019-02-27T11:25:34.708Z,21.84
2019-02-27T11:26:34.692Z,21.36
2019-02-27T11:27:36.366Z,21.15
2019-02-27T11:28:34.729Z,21.34
2019-02-27T11:29:34.658Z,20.14
2019-02-27T11:30:36.841Z,20.04
2019-02-27T11:31:34.633Z,20.04
2019-02-27T11:32:34.629Z,19.83
2019-02-27T11:33:34.609Z,20.12
2019-02-27T11:34:34.617Z,19.01
2019-02-27T11:35:34.588Z,19.21
2019-02-27T11:36:35.013Z,18.70
2019-02-27T11:37:34.570Z,18.60
2019-02-27T11:38:34.563Z,18.48
2019-02-27T11:39:34.583Z,18.67
2019-02-27T11:40:34.543Z,18.47
2019-02-27T11:41:34.527Z,17.88
2019-02-27T11:42:34.517Z,18.19
2019-02-27T11:43:34.502Z,17.49
2019-02-27T11:44:34.532Z,18.99
2019-02-27T11:45:34.495Z,18.19
2019-02-27T11:46:35.121Z,18.69
2019-02-27T11:47:34.471Z,18.29
2019-02-27T11:48:34.448Z,18.49
2019-02-27T11:49:38.434Z,18.79
2019-02-27T11:50:34.430Z,18.39
2019-02-27T11:51:34.450Z,18.60
2019-02-27T11:52:34.420Z,20.79
2019-02-27T11:53:36.009Z,19.40
2019-02-27T11:54:34.393Z,19.29
2019-02-27T11:55:34.411Z,18.79
2019-02-27T11:56:34.360Z,18.60
2019-02-27T11:57:34.349Z,18.69
2019-02-27T11:58:35.252Z,18.19
2019-02-27T11:59:34.332Z,17.98
2019-02-27T12:00:34.318Z,17.46
2019-02-27T12:01:34.320Z,18.06
2019-02-27T12:02:37.851Z,17.88
2019-02-27T12:03:34.335Z,17.79
2019-02-27T12:04:34.289Z,18.19
2019-02-27T12:05:34.588Z,17.71
2019-02-27T12:06:34.256Z,18.10
2019-02-27T12:07:34.267Z,17.90
2019-02-27T12:08:34.228Z,17.51
2019-02-27T12:09:35.173Z,18.01
2019-02-27T12:10:34.208Z,17.91
2019-02-27T12:11:34.199Z,18.32
2019-02-27T12:12:34.187Z,18.22
2019-02-27T12:13:34.920Z,18.32
2019-02-27T12:14:34.173Z,17.72
2019-02-27T12:15:34.204Z,18.22
2019-02-27T12:16:34.154Z,17.82
2019-02-27T12:17:34.172Z,18.53
2019-02-27T12:18:34.549Z,19.23
2019-02-27T12:19:34.206Z,18.63
2019-02-27T12:20:34.101Z,18.82
2019-02-27T12:21:34.086Z,18.43
2019-02-27T12:22:35.273Z,18.53
2019-02-27T12:23:34.187Z,18.74
2019-02-27T12:24:34.058Z,18.94
2019-02-27T12:25:34.051Z,18.25
2019-02-27T12:26:34.440Z,18.76
2019-02-27T12:27:48.629Z,19.76
2019-02-27T12:28:35.009Z,19.86
2019-02-27T12:29:33.999Z,19.36
2019-02-27T12:30:37.199Z,19.36
2019-02-27T12:31:33.978Z,20.06
2019-02-27T12:32:33.968Z,21.17
2019-02-27T12:33:34.494Z,21.08
2019-02-27T12:34:36.919Z,20.68
2019-02-27T12:35:33.940Z,21.78
2019-02-27T12:36:33.971Z,20.37
2019-02-27T12:37:34.740Z,20.56
2019-02-27T12:38:33.906Z,21.76
2019-02-27T12:39:33.903Z,20.45
2019-02-27T12:40:33.883Z,20.36
2019-02-27T12:41:33.870Z,20.14
2019-02-27T12:42:37.385Z,20.05
2019-02-27T12:43:33.846Z,20.36
2019-02-27T12:44:34.539Z,21.45
2019-02-27T12:45:33.868Z,19.85
2019-02-27T12:46:34.215Z,20.67
2019-02-27T12:47:33.809Z,19.36
2019-02-27T12:48:33.831Z,20.27
2019-02-27T12:49:33.788Z,20.68
2019-02-27T12:50:33.778Z,20.50
2019-02-27T12:51:35.248Z,21.50
2019-02-27T12:52:33.750Z,21.40